Federal Oshima — VRVY8 — position and weather

sailwx.info

Track history (hours):
 
Tides and Currents Weather Stations Pressure Air Temp Water Temp Dewpoint Dewpoint Depression Visibility Wind Speed Wind Dir Waves Ship Positions

Federal Oshima

Last reported at 2016-Oct-31 13:33 UTC. Time now 2016-Dec-05 16:35 UTC.
Position N 51°10' E 003°48'.
Warning: this ship's position is 35 days out of date.

Length 200 m; draft 10.7 m.

Type: Cargo ship. MMSI: 477675000.

Date/timePositionNaut miles runAvg speedWind from/ knotsBaromVisibWave heightAir tempDewpointWater temp
2016-Oct-31 13:33N 51°10' E 003°48'0 0.0
2016-Oct-31 12:33N 51°10' E 003°48'0 0.0
2016-Oct-31 10:30N 51°10' E 003°48'0 0.0
2016-Oct-31 09:33N 51°10' E 003°48'0 0.0
2016-Oct-31 08:33N 51°10' E 003°48'0 0.0
2016-Oct-31 07:33N 51°10' E 003°48'0 0.0
2016-Oct-31 03:33N 51°10' E 003°48'0 0.0
2016-Oct-30 20:33N 51°10' E 003°48'0 0.0
2016-Oct-30 13:33N 51°10' E 003°48'0 0.0
2016-Oct-30 12:33N 51°10' E 003°48'0 0.0
2016-Oct-30 11:33N 51°10' E 003°48'0 0.0
2016-Oct-30 08:33N 51°10' E 003°48'0 0.0
2016-Oct-30 07:33N 51°10' E 003°48'0 0.0
2016-Oct-30 02:30N 51°10' E 003°48'0 0.0
2016-Oct-30 00:33N 51°10' E 003°48'0 0.0
2016-Oct-29 23:33N 51°10' E 003°48'0 0.0
2016-Oct-29 22:30N 51°10' E 003°48'0 0.0
2016-Oct-29 21:33N 51°10' E 003°48'0 0.0
2016-Oct-29 20:33N 51°10' E 003°48'0 0.0
2016-Oct-29 19:33N 51°10' E 003°48'0 0.0
2016-Oct-29 18:33N 51°10' E 003°48'0 0.0
2016-Oct-29 16:33N 51°10' E 003°48'0 0.0
2016-Oct-29 14:33N 51°10' E 003°48'0 0.0
2016-Oct-29 11:33N 51°10' E 003°48'0 0.0
2016-Oct-29 09:30N 51°10' E 003°48'0 0.0
2016-Oct-29 06:33N 51°10' E 003°48'0 0.0
2016-Oct-29 04:33N 51°10' E 003°48'0 0.0
2016-Oct-29 02:30N 51°10' E 003°48'7 2.4
2016-Oct-28 23:33N 51°17' E 003°50'3 1.7
2016-Oct-28 21:34N 51°20' E 003°49'9 4.7
2016-Oct-28 19:34N 51°26' E 003°36'3110.4
2016-Oct-28 16:34N 51°21' E 002°47'7 7.2
2016-Oct-28 15:33N 51°23' E 002°36'2 2.1
2016-Oct-28 14:31N 51°25' E 002°36'0 0.0
2016-Oct-28 09:31N 51°25' E 002°36'0 0.3
2016-Oct-28 08:31N 51°25' E 002°35'0 0.0
2016-Oct-28 07:31N 51°25' E 002°35'0 0.0
2016-Oct-28 00:28N 51°25' E 002°36'0 0.0
2016-Oct-27 23:31N 51°25' E 002°36'0 0.0
2016-Oct-27 21:31N 51°25' E 002°36'0 0.1
2016-Oct-27 17:31N 51°25' E 002°35'0 0.1
2016-Oct-27 15:31N 51°25' E 002°36'0 0.0
2016-Oct-27 11:31N 51°25' E 002°36'0 0.0
2016-Oct-27 09:31N 51°25' E 002°36'1 0.2
2016-Oct-27 05:33N 51°25' E 002°35'6 6.2
2016-Oct-27 04:33N 51°21' E 002°27'7 7.0
2016-Oct-27 03:33N 51°19' E 002°16'15 5.1
2016-Oct-27 00:33N 51°33' E 002°07'21 7.0
2016-Oct-26 21:33N 51°49' E 002°29'  
2016-Oct-23 16:33N 61°47' E 004°03'  
Track history (hours):
 
Tides and Currents Weather Stations Pressure Air Temp Water Temp Dewpoint Dewpoint Depression Visibility Wind Speed Wind Dir Waves Ship Positions

Federal Oshima

Last reported at 2016-Oct-31 13:33 UTC. Time now 2016-Dec-05 16:35 UTC.
Position N 51°10' E 003°48'.
Warning: this ship's position is 35 days out of date.

Length 200 m; draft 10.7 m.

Type: Cargo ship. MMSI: 477675000.

Date/timePositionNaut miles runAvg speedWind from/ knotsBaromVisibWave heightAir tempDewpointWater temp
2016-Oct-31 13:33N 51°10' E 003°48'0 0.0
2016-Oct-31 12:33N 51°10' E 003°48'0 0.0
2016-Oct-31 10:30N 51°10' E 003°48'0 0.0
2016-Oct-31 09:33N 51°10' E 003°48'0 0.0
2016-Oct-31 08:33N 51°10' E 003°48'0 0.0
2016-Oct-31 07:33N 51°10' E 003°48'0 0.0
2016-Oct-31 03:33N 51°10' E 003°48'0 0.0
2016-Oct-30 20:33N 51°10' E 003°48'0 0.0
2016-Oct-30 13:33N 51°10' E 003°48'0 0.0
2016-Oct-30 12:33N 51°10' E 003°48'0 0.0
2016-Oct-30 11:33N 51°10' E 003°48'0 0.0
2016-Oct-30 08:33N 51°10' E 003°48'0 0.0
2016-Oct-30 07:33N 51°10' E 003°48'0 0.0
2016-Oct-30 02:30N 51°10' E 003°48'0 0.0
2016-Oct-30 00:33N 51°10' E 003°48'0 0.0
2016-Oct-29 23:33N 51°10' E 003°48'0 0.0
2016-Oct-29 22:30N 51°10' E 003°48'0 0.0
2016-Oct-29 21:33N 51°10' E 003°48'0 0.0
2016-Oct-29 20:33N 51°10' E 003°48'0 0.0
2016-Oct-29 19:33N 51°10' E 003°48'0 0.0
2016-Oct-29 18:33N 51°10' E 003°48'0 0.0
2016-Oct-29 16:33N 51°10' E 003°48'0 0.0
2016-Oct-29 14:33N 51°10' E 003°48'0 0.0
2016-Oct-29 11:33N 51°10' E 003°48'0 0.0
2016-Oct-29 09:30N 51°10' E 003°48'0 0.0
2016-Oct-29 06:33N 51°10' E 003°48'0 0.0
2016-Oct-29 04:33N 51°10' E 003°48'0 0.0
2016-Oct-29 02:30N 51°10' E 003°48'7 2.4
2016-Oct-28 23:33N 51°17' E 003°50'3 1.7
2016-Oct-28 21:34N 51°20' E 003°49'9 4.7
2016-Oct-28 19:34N 51°26' E 003°36'3110.4
2016-Oct-28 16:34N 51°21' E 002°47'7 7.2
2016-Oct-28 15:33N 51°23' E 002°36'2 2.1
2016-Oct-28 14:31N 51°25' E 002°36'0 0.0
2016-Oct-28 09:31N 51°25' E 002°36'0 0.3
2016-Oct-28 08:31N 51°25' E 002°35'0 0.0
2016-Oct-28 07:31N 51°25' E 002°35'0 0.0
2016-Oct-28 00:28N 51°25' E 002°36'0 0.0
2016-Oct-27 23:31N 51°25' E 002°36'0 0.0
2016-Oct-27 21:31N 51°25' E 002°36'0 0.1
2016-Oct-27 17:31N 51°25' E 002°35'0 0.1
2016-Oct-27 15:31N 51°25' E 002°36'0 0.0
2016-Oct-27 11:31N 51°25' E 002°36'0 0.0
2016-Oct-27 09:31N 51°25' E 002°36'1 0.2
2016-Oct-27 05:33N 51°25' E 002°35'6 6.2
2016-Oct-27 04:33N 51°21' E 002°27'7 7.0
2016-Oct-27 03:33N 51°19' E 002°16'15 5.1
2016-Oct-27 00:33N 51°33' E 002°07'21 7.0
2016-Oct-26 21:33N 51°49' E 002°29'  
2016-Oct-23 16:33N 61°47' E 004°03'  

Dump ship's entire track history